Tiempo atmosférico en la estación meteorológica de Teror, Las Palmas (683 m.)



Fecha
DESCASC
Temp. máxima en grados centígrados (hora)
DESCASC
Temp. mínima en grados centígrados (hora)
DESCASC
Temp. media en grados centígrados
DESCASC
Racha de viento máxima en m/sg (hora)
DESCASC
Velocidad máxima media en intervalos de 10 minutos(hora)
DESCASC
Precipitaciones diarias en mm
DESCASC
Precipitaciones de 00:00 a 06:00 en mm
DESCASC
Precipitaciones de 06:00 a 12:00 en mm
DESCASC
Precipitaciones de 12:00 a 18:00 en mm
DESCASC
Precipitaciones de 18:00 a 24:00 en mm
DESCASC
16-01-2020 18.7 (12:10) 5.8 (03:40) 12.3 6.39 (15:00) 3.06 (02:40) 0 0 0 0 0
15-01-2020 18.2 (10:30) 5.7 (05:30) 12 7.78 (12:30) 3.89 (14:30) 0 0 0 0 0
14-01-2020 18.8 (09:40) 6.5 (06:50) 12.6 8.89 (11:10) 4.44 (11:00) 0 0 0 0 0
13-01-2020 19.1 (13:30) 7.6 (21:10) 13.4 7.78 (12:10) 4.17 (12:10) 0 0 0 0 0
12-01-2020 15.7 (16:10) 7.4 (00:00) 11.5 9.17 (14:30) 5 (14:50) 0.2 0.2 0 0 0
11-01-2020 13.3 (14:50) 10.3 (00:00) 11.8 6.39 (16:50) 3.61 (15:30) 1.6 0.2 0 0.6 0.8
10-01-2020 14.5 (13:40) 11.1 (00:00) 12.8 7.22 (10:00) 3.89 (10:40) 8 0.8 6.2 0.4 0.6
09-01-2020 14.6 (11:20) 9.1 (00:00) 11.9 7.78 (20:20) 3.89 (18:50) 0.6 0 0.2 0 0.4
08-01-2020 15.6 (15:20) 10.2 (00:00) 12.9 6.39 (11:20) 3.33 (11:10) 0.8 0 0.6 0.2 0
07-01-2020 16.5 (12:20) 10.1 (00:00) 13.3 8.06 (01:00) 4.72 (01:10) 1 1 0 0 0
06-01-2020 14.9 (14:20) 10.3 (00:00) 12.6 9.17 (21:00) 5.28 (21:20) 0 0 0 0 0
05-01-2020 18.5 (12:20) 9 (00:00) 13.8 6.11 (11:30) 3.06 (15:30) 0 0 0 0 0
04-01-2020 18.6 (13:10) 8.7 (00:00) 13.7 7.5 (05:20) 4.44 (05:20) 0 0 0 0 0
03-01-2020 16.2 (14:00) 9.7 (00:00) 13 12.22 (12:10) 6.67 (12:10) 0 0 0 0 0
02-01-2020 16.3 (12:00) 8.9 (00:00) 12.6 10.28 (04:10) 5.28 (11:00) 0 0 0 0 0
01-01-2020 16.8 (11:30) 7.4 (00:00) 12.1 10.56 (03:30) 5.56 (02:00) 0 0 0 0 0
31-12-2019 21.7 (10:40) 8.3 (00:00) 15 8.89 (23:50) 4.44 (23:50) 0 0 0 0 0
30-12-2019 -- (--) -- (--) -- -- (--) -- (--) -- 0 0 -- 0
29-12-2019 22.5 (14:10) 13.8 (00:00) 18.2 8.61 (10:10) 5.28 (09:40) 0 0 0 0 0
28-12-2019 24.2 (11:30) 14.4 (00:00) 19.3 7.78 (15:10) 3.89 (12:50) 0 0 0 0 0
27-12-2019 24.1 (16:30) 13.5 (00:00) 18.8 8.89 (10:50) 5 (11:10) 0 0 0 0 0
26-12-2019 21.5 (15:30) 10.7 (00:00) 16.1 10.28 (05:10) 4.17 (05:10) 0 0 0 0 0
25-12-2019 25.2 (10:20) 13.9 (00:00) 19.6 9.17 (17:40) 5 (17:40) 0 0 0 0 0
24-12-2019 24.3 (10:00) 12 (00:00) 18.1 9.72 (03:20) 4.72 (03:10) 0 0 0 0 0
23-12-2019 20.7 (15:50) 10.9 (00:00) 15.8 7.5 (23:40) 3.61 (23:50) 0 0 0 0 0
22-12-2019 18.9 (14:40) 12 (00:00) 15.4 6.39 (12:00) 3.33 (09:30) 0 0 0 0 0
21-12-2019 18.1 (13:20) 8.7 (00:00) 13.4 8.61 (06:20) 5 (06:10) 0.2 0 0.2 0 0

Gráficas

Temp. máximas Temp. mínimas Temp. medias Precipitaciones Rachas de viento máximas Velocidades máximas media en intervalos de 10 minutos

Datos horarios

Fecha y hora oficial Temperatura (ºC) Velocidad del viento (km/h) Dirección del viento Racha (km/h) Dirección de racha Precipitación (mm) Presión (hPa) Tendencia (hPa) Humedad (%)
2020-01-19 23:00:00 12.3 5 Nordeste 13 Norte 0 -- -- 97
2020-01-19 22:00:00 11.3 0 Calma 10 Noroeste 0 -- -- 98
2020-01-19 21:00:00 11.1 4 Sudoeste 10 Sudoeste 0 -- -- 98
2020-01-19 20:00:00 10.9 4 Sudoeste 5 Sudoeste 0 -- -- 100
2020-01-19 19:00:00 11.2 3 Sudeste 6 Sur 0 -- -- 98
2020-01-19 18:00:00 11.8 3 Sudeste 14 Este 0 -- -- 90
2020-01-19 17:00:00 16 7 Nordeste 15 Nordeste 0 -- -- 77
2020-01-19 16:00:00 17.7 9 Nordeste 14 Nordeste 0 -- -- 61
2020-01-19 15:00:00 18.5 7 Este 17 Este 0 -- -- 66
2020-01-19 14:00:00 19.2 8 Nordeste 17 Nordeste 0 -- -- 51
2020-01-19 13:00:00 20.7 8 Nordeste 17 Este 0 -- -- 36
2020-01-19 12:00:00 20.4 9 Este 17 Este 0 -- -- 29
2020-01-19 11:00:00 19.7 11 Este 21 Sudeste 0 -- -- 27
2020-01-19 10:00:00 19.6 12 Sudeste 20 Este 0 -- -- 23
2020-01-19 09:00:00 16.5 8 Sudeste 15 Sudeste 0 -- -- 28
2020-01-19 08:00:00 11.5 7 Sur 13 Sudoeste 0 -- -- 34
2020-01-19 07:00:00 11.3 7 Sudoeste 15 Sur 0 -- -- 34
2020-01-19 06:00:00 11.2 7 Sudoeste 14 Sur 0 -- -- 34
2020-01-19 05:00:00 11.2 7 Sur 13 Sur 0 -- -- 35
2020-01-19 04:00:00 11.2 8 Sur 15 Sur 0 -- -- 36
2020-01-19 03:00:00 10.8 7 Sur 17 Sur 0 -- -- 38
2020-01-19 02:00:00 11.1 7 Sur 14 Sur 0 -- -- 39
2020-01-19 01:00:00 10.6 7 Sudeste 14 Sudeste 0 -- -- 39
2020-01-19 00:00:00 10.3 6 Sudeste 13 Sur 0 -- -- 41
2020-01-18 23:00:00 11.1 6 Sur 11 Sur 0 -- -- 38
2020-01-18 22:00:00 10.9 5 Sur 13 Sur 0 -- -- 37
2020-01-18 21:00:00 11.3 6 Sur 10 Sur 0 -- -- 38
2020-01-18 20:00:00 11.3 5 Sur 12 Sur 0 -- -- 38
2020-01-18 19:00:00 11.3 6 Sudoeste 13 Sudeste 0 -- -- 48
2020-01-18 18:00:00 12.9 8 Sudeste 19 Este 0 -- -- 49
2020-01-18 17:00:00 17.3 12 Sudeste 21 Este 0 -- -- 42
2020-01-18 16:00:00 19.2 9 Este 22 Este 0 -- -- 47
2020-01-18 15:00:00 18.8 13 Sudeste 22 Sudeste 0 -- -- 48
2020-01-18 14:00:00 19.2 12 Sudeste 26 Sudeste 0 -- -- 44
2020-01-18 13:00:00 18.9 17 Sudeste 32 Sudeste 0 -- -- 36
2020-01-18 12:00:00 18.4 16 Sudeste 31 Sudeste 0 -- -- 33
2020-01-18 11:00:00 18.9 14 Sudeste 32 Sudeste 0 -- -- 30
2020-01-18 10:00:00 18 17 Sudeste 32 Sudeste 0 -- -- 23
2020-01-18 09:00:00 15.5 14 Sudeste 31 Sudeste 0 -- -- 29
2020-01-18 08:00:00 13.4 17 Sudeste 30 Este 0 -- -- 29
2020-01-18 07:00:00 13.3 15 Sudeste 30 Sudeste 0 -- -- 29
2020-01-18 06:00:00 12.8 13 Sudeste 26 Sudeste 0 -- -- 30
2020-01-18 05:00:00 13 13 Sur 24 Sur 0 -- -- 31
2020-01-18 04:00:00 13.3 12 Sur 23 Sur 0 -- -- 29
2020-01-18 03:00:00 13.5 11 Sur 21 Sur 0 -- -- 26
2020-01-18 02:00:00 10.6 5 Sudeste 15 Sur 0 -- -- 32
2020-01-18 01:00:00 10.2 6 Sur 12 Sur 0 -- -- 28
2020-01-18 00:00:00 9.4 5 Sur 11 Sur 0 -- -- 36
2020-01-17 23:00:00 9.5 4 Sudeste 10 Sudeste 0 -- -- 41
2020-01-17 22:00:00 11.1 5 Sur 11 Sur 0 -- -- 34
2020-01-17 21:00:00 9.2 4 Sur 17 Sur 0 -- -- 37
2020-01-17 20:00:00 12 8 Sur 16 Sudeste 0 -- -- 37
2020-01-17 19:00:00 10.3 9 Sur 15 Sudeste 0 -- -- 53
2020-01-17 18:00:00 12.1 9 Sudeste 21 Sudeste 0 -- -- 52
2020-01-17 17:00:00 15.8 13 Sudeste 25 Sudeste 0 -- -- 45
2020-01-17 16:00:00 17.1 12 Sudeste 25 Sudeste 0 -- -- 46
2020-01-17 15:00:00 17.6 14 Sudeste 30 Este 0 -- -- 48
2020-01-17 14:00:00 17.3 16 Sudeste 28 Este 0 -- -- 47
2020-01-17 13:00:00 17.2 15 Sudeste 30 Sudeste 0 -- -- 45
2020-01-17 12:00:00 17.1 17 Sudeste 30 Este 0 -- -- 38
2020-01-17 11:00:00 17.3 15 Sudeste 28 Sudeste 0 -- -- 41
2020-01-17 10:00:00 16.2 13 Sudeste 25 Sudeste 0 -- -- 34
2020-01-17 09:00:00 13.6 11 Sudeste 21 Sudeste 0 -- -- 38
2020-01-17 08:00:00 9.5 8 Sur 15 Sur 0 -- -- 38
2020-01-17 07:00:00 8.9 6 Sur 12 Sur 0 -- -- 50
2020-01-17 06:00:00 8 7 Sur 14 Sur 0 -- -- 60
2020-01-17 05:00:00 8.7 8 Sur 16 Sur 0 -- -- 50
2020-01-17 04:00:00 8.9 8 Sur 15 Sur 0 -- -- 47
2020-01-17 03:00:00 9.3 6 Sur 17 Sur 0 -- -- 44
2020-01-17 02:00:00 9.5 8 Sur 13 Sur 0 -- -- 49
2020-01-17 01:00:00 9.4 6 Sur 12 Sudoeste 0 -- -- 56
2020-01-17 00:00:00 9 5 Sur 12 Sur 0 -- -- 59
2020-01-16 23:00:00 9.8 6 Sur 14 Sur 0 -- -- 52
2020-01-16 22:00:00 9.8 6 Sur 13 Sur 0 -- -- 48
2020-01-16 21:00:00 9.3 5 Sudoeste 12 Sudoeste 0 -- -- 50
2020-01-16 20:00:00 9.8 7 Sudoeste 12 Sudoeste 0 -- -- 53
2020-01-16 19:00:00 7.9 5 Sudoeste 9 Sur 0 -- -- 67
2020-01-16 18:00:00 9.7 2 Sudoeste 14 Este 0 -- -- 65
2020-01-16 17:00:00 16.9 7 Este 19 Este 0 -- -- 42
2020-01-16 16:00:00 18 8 Este 21 Este 0 -- -- 44
2020-01-16 15:00:00 18.2 11 Este 23 Este 0 -- -- 49
2020-01-16 14:00:00 17.8 10 Nordeste 18 Este 0 -- -- 54
2020-01-16 13:00:00 18.4 7 Este 20 Este 0 -- -- 49
2020-01-16 12:00:00 17.8 9 Este 17 Este 0 -- -- 51
2020-01-16 11:00:00 17.7 6 Este 13 Sudeste 0 -- -- 41
2020-01-16 10:00:00 18.4 3 Este 10 Sudeste 0 -- -- 31
2020-01-16 09:00:00 13.8 4 Sudoeste 8 Sudoeste 0 -- -- 41
2020-01-16 08:00:00 8.4 5 Sudoeste 11 Sudoeste 0 -- -- 50
2020-01-16 07:00:00 6.8 5 Sudoeste 10 Sur 0 -- -- 58
2020-01-16 06:00:00 7.5 6 Sudoeste 14 Oeste 0 -- -- 65
2020-01-16 05:00:00 7 10 Oeste 12 Oeste 0 -- -- 71
2020-01-16 04:00:00 6.7 10 Oeste 14 Oeste 0 -- -- 67
2020-01-16 03:00:00 7.2 3 Oeste 14 Oeste 0 -- -- 70
2020-01-16 02:00:00 7.6 4 Oeste 14 Noroeste 0 -- -- 77
2020-01-16 01:00:00 8.2 6 Oeste 14 Oeste 0 -- -- 55
2020-01-16 00:00:00 8 4 Sudoeste 10 Sudoeste 0 -- -- 57
2020-01-15 23:00:00 8.6 5 Sudoeste 11 Sudoeste 0 -- -- 48
2020-01-15 22:00:00 10.1 6 Sur 14 Sudoeste 0 -- -- 44
2020-01-15 21:00:00 11 9 Oeste 16 Sudoeste 0 -- -- 44
2020-01-15 20:00:00 9.9 7 Sudoeste 12 Sur 0 -- -- 62
2020-01-15 19:00:00 9.7 6 Sudoeste 10 Sudoeste 0 -- -- 75
2020-01-15 18:00:00 10.5 2 Sur 10 Sudeste 0 -- -- 79
2020-01-15 17:00:00 16.8 6 Sudeste 17 Este 0 -- -- 57
2020-01-15 16:00:00 17.1 9 Sudeste 25 Este 0 -- -- 55
2020-01-15 15:00:00 17.6 10 Sudeste 26 Sudeste 0 -- -- 48
2020-01-15 14:00:00 17.5 13 Este 27 Sudeste 0 -- -- 44
2020-01-15 13:00:00 17.8 11 Sudeste 28 Este 0 -- -- 52
2020-01-15 12:00:00 17.1 14 Sudeste 26 Este 0 -- -- 52
2020-01-15 11:00:00 17.8 8 Sudeste 19 Este 0 -- -- 41
2020-01-15 10:00:00 16.6 4 Nordeste 12 Noroeste 0 -- -- 37
2020-01-15 09:00:00 12.9 5 Noroeste 14 Noroeste 0 -- -- 51
2020-01-15 08:00:00 7.2 9 Oeste 14 Oeste 0 -- -- 61
2020-01-15 07:00:00 7.2 10 Oeste 14 Noroeste 0 -- -- 65
2020-01-15 06:00:00 5.9 10 Oeste 13 Oeste 0 -- -- 74
2020-01-15 05:00:00 6.4 8 Oeste 12 Oeste 0 -- -- 73
2020-01-15 04:00:00 6.7 8 Oeste 16 Oeste 0 -- -- 77
2020-01-15 03:00:00 6.7 8 Oeste 13 Oeste 0 -- -- 78
2020-01-15 02:00:00 6.7 9 Oeste 10 Oeste 0 -- -- 79
2020-01-15 01:00:00 5.8 5 Sudoeste 11 Oeste 0 -- -- 87
2020-01-15 00:00:00 8.9 11 Oeste 16 Oeste 0 -- -- 84
2020-01-14 23:00:00 7.5 10 Oeste 13 Oeste 0 -- -- 81
2020-01-14 22:00:00 7.2 6 Sudoeste 8 Sudoeste 0 -- -- 83
2020-01-14 21:00:00 8.5 5 Oeste 14 Oeste 0 -- -- 77
2020-01-14 20:00:00 8.5 8 Oeste 14 Oeste 0 -- -- 82
2020-01-14 19:00:00 8.2 5 Sudoeste 12 Oeste 0 -- -- 85
2020-01-14 18:00:00 11.4 8 Oeste 14 Oeste 0 -- -- 72
2020-01-14 17:00:00 15.5 8 Oeste 18 Norte 0 -- -- 62
2020-01-14 16:00:00 15.9 4 Norte 22 Norte 0 -- -- 59
2020-01-14 15:00:00 16.7 10 Norte 21 Norte 0 -- -- 55
2020-01-14 14:00:00 17.2 8 Norte 21 Este 0 -- -- 46
2020-01-14 13:00:00 18.1 10 Este 26 Este 0 -- -- 38
2020-01-14 12:00:00 18.1 12 Sudeste 32 Sudeste 0 -- -- 39
2020-01-14 11:00:00 17.6 16 Sudeste 29 Sudeste 0 -- -- 37
2020-01-14 10:00:00 18.2 9 Sudeste 17 Sur 0 -- -- 38
2020-01-14 09:00:00 13.7 4 Oeste 9 Oeste 0 -- -- 45
2020-01-14 08:00:00 7.4 6 Oeste 14 Oeste 0 -- -- 62
2020-01-14 07:00:00 7 4 Sudoeste 9 Oeste 0 -- -- 62
2020-01-14 06:00:00 9 5 Sudoeste 14 Sudoeste 0 -- -- 54
2020-01-14 05:00:00 9.7 7 Sudoeste 14 Sur 0 -- -- 50
2020-01-14 04:00:00 11.1 7 Sudoeste 15 Sur 0 -- -- 42
2020-01-14 03:00:00 11.5 9 Sudoeste 18 Sudeste 0 -- -- 42
2020-01-14 02:00:00 11.5 7 Sudoeste 15 Sudoeste 0 -- -- 43
2020-01-14 01:00:00 11.1 6 Sudoeste 14 Sudoeste 0 -- -- 47
2020-01-14 00:00:00 9.5 4 Oeste 14 Oeste 0 -- -- 62
2020-01-13 23:00:00 8.7 8 Oeste 11 Oeste 0 -- -- 78
2020-01-13 22:00:00 7.9 6 Sudoeste 9 Sudoeste 0 -- -- 91
2020-01-13 21:00:00 7.9 4 Sudoeste 8 Oeste 0 -- -- 92
2020-01-13 20:00:00 8.4 4 Sudoeste 7 Sudoeste 0 -- -- 93
2020-01-13 19:00:00 9.6 5 Oeste 9 Oeste 0 -- -- 89
2020-01-13 18:00:00 11.2 0 Calma 10 Oeste 0 -- -- 82
2020-01-13 17:00:00 17.8 4 Norte 12 Noroeste 0 -- -- 59
2020-01-13 16:00:00 17.9 8 Noroeste 17 Nordeste 0 -- -- 58
2020-01-13 15:00:00 17.7 9 Norte 20 Nordeste 0 -- -- 57
2020-01-13 14:00:00 17.9 9 Este 22 Sudeste 0 -- -- 55
2020-01-13 13:00:00 18.5 10 Sudeste 28 Sudeste 0 -- -- 59
2020-01-13 12:00:00 18.3 14 Sudeste 25 Sudeste 0 -- -- 60
2020-01-13 11:00:00 18.9 5 Sudeste 13 Sudeste 0 -- -- 60
2020-01-13 10:00:00 17.5 7 Sudeste 14 Sudeste 0 -- -- 58
2020-01-13 09:00:00 13.3 6 Sudoeste 13 Sudoeste 0 -- -- 72
2020-01-13 08:00:00 9.5 5 Sur 15 Sur 0 -- -- 94
2020-01-13 07:00:00 10.6 12 Sudeste 19 Sudeste 0 -- -- 92
2020-01-13 06:00:00 10.7 11 Sudeste 21 Sur 0 -- -- 83
2020-01-13 05:00:00 10.9 12 Sudeste 25 Sur 0 -- -- 77
2020-01-13 04:00:00 10.6 10 Sur 23 Sudeste 0 -- -- 70
2020-01-13 03:00:00 9.4 7 Sur 17 Sudeste 0 -- -- 95
2020-01-13 02:00:00 9.1 7 Sur 13 Sur 0 -- -- 96
2020-01-13 01:00:00 9.5 7 Sudeste 17 Sudeste 0 -- -- 91
2020-01-13 00:00:00 9.3 8 Sur 14 Sur 0 -- -- 84
2020-01-12 23:00:00 8.7 6 Sudeste 12 Sudeste 0 -- -- 84
2020-01-12 22:00:00 9 6 Sur 14 Sur 0 -- -- 74
2020-01-12 21:00:00 9.1 8 Sur 13 Sudoeste 0 -- -- 70
2020-01-12 20:00:00 7.7 5 Sudoeste 13 Sudoeste 0 -- -- 92
2020-01-12 19:00:00 10.1 7 Sudoeste 13 Oeste 0 -- -- 61
2020-01-12 18:00:00 10.6 5 Sur 15 Sudeste 0 -- -- 86
2020-01-12 17:00:00 14.5 10 Sudeste 22 Sudeste 0 -- -- 68
2020-01-12 16:00:00 15.1 13 Sudeste 32 Sur 0 -- -- 61
2020-01-12 15:00:00 15.1 18 Sudeste 33 Sudeste 0 -- -- 68
2020-01-12 14:00:00 14.1 14 Sudeste 24 Este 0 -- -- 82
2020-01-12 13:00:00 13.3 13 Este 24 Este 0 -- -- 84
2020-01-12 12:00:00 13.5 9 Este 18 Sudeste 0 -- -- 82
2020-01-12 11:00:00 12.5 9 Este 16 Este 0 -- -- 90
2020-01-12 10:00:00 11.7 8 Sudeste 14 Sudeste 0 -- -- 87
2020-01-12 09:00:00 10.8 5 Sur 14 Sudeste 0 -- -- 93
2020-01-12 08:00:00 10.3 3 Sur 10 Este 0 -- -- 98
2020-01-12 07:00:00 10.4 0 Calma 8 Este 0 -- -- 100
2020-01-12 06:00:00 10.6 3 Nordeste 13 Nordeste 0 -- -- 100
2020-01-12 05:00:00 10.7 2 Este 10 Norte 0.2 -- -- 100
2020-01-12 04:00:00 10.6 4 Nordeste 10 Norte 0 -- -- 100
2020-01-12 03:00:00 10.8 4 Oeste 12 Norte 0 -- -- 100
2020-01-12 02:00:00 10.8 6 Noroeste 14 Norte 0 -- -- 100
2020-01-12 01:00:00 10.7 5 Noroeste 11 Noroeste 0 -- -- 100
2020-01-12 00:00:00 10.4 4 Noroeste 17 Norte 0 -- -- 100
2020-01-11 23:00:00 10.9 4 Norte 16 Norte 0.2 -- -- 100
2020-01-11 22:00:00 11 11 Norte 22 Nordeste 0.4 -- -- 100
2020-01-11 21:00:00 10.9 6 Norte 21 Norte 0.2 -- -- 100
2020-01-11 20:00:00 10.6 5 Noroeste 11 Noroeste 0 -- -- 97
2020-01-11 19:00:00 10.5 6 Norte 14 Norte 0 -- -- 97
2020-01-11 18:00:00 11 8 Norte 21 Norte 0.2 -- -- 100
2020-01-11 17:00:00 11.3 12 Norte 23 Norte 0.4 -- -- 100
2020-01-11 16:00:00 11.6 5 Norte 22 Norte 0 -- -- 99
2020-01-11 15:00:00 13.1 11 Norte 19 Norte 0 -- -- 91
2020-01-11 14:00:00 12.5 7 Norte 15 Norte 0 -- -- 93
2020-01-11 13:00:00 12.4 8 Norte 16 Norte 0 -- -- 95
2020-01-11 12:00:00 12.6 6 Norte 14 Norte 0 -- -- 93
2020-01-11 11:00:00 12.3 5 Norte 13 Nordeste 0 -- -- 96
2020-01-11 10:00:00 11.7 5 Noroeste 10 Sudoeste 0 -- -- 94
2020-01-11 09:00:00 10.9 2 Oeste 10 Norte 0 -- -- 96
2020-01-11 08:00:00 10.5 4 Noroeste 10 Norte 0 -- -- 98
2020-01-11 07:00:00 10.4 4 Noroeste 11 Nordeste 0 -- -- 99
2020-01-11 06:00:00 10.5 4 Norte 14 Noroeste 0 -- -- 100
2020-01-11 05:00:00 10.7 4 Noroeste 14 Norte 0 -- -- 100
2020-01-11 04:00:00 11.1 3 Noroeste 17 Norte 0 -- -- 100
2020-01-11 03:00:00 11.9 6 Nordeste 12 Este 0 -- -- 100
2020-01-11 02:00:00 11.7 4 Norte 15 Nordeste 0 -- -- 100
2020-01-11 01:00:00 12.2 7 Norte 19 Norte 0.2 -- -- 100
2020-01-11 00:00:00 12 5 Norte 18 Nordeste 0.6 -- -- 100
2020-01-10 23:00:00 11.9 2 Nordeste 11 Este 0 -- -- 100
2020-01-10 22:00:00 11.9 3 Norte 17 Nordeste 0 -- -- 100
2020-01-10 21:00:00 12 3 Oeste 10 Nordeste 0 -- -- 100
2020-01-10 20:00:00 11.4 3 Sudoeste 12 Nordeste 0 -- -- 95
2020-01-10 19:00:00 11.8 5 Norte 17 Norte 0 -- -- 93
2020-01-10 18:00:00 12.2 5 Nordeste 21 Nordeste 0 -- -- 98
2020-01-10 17:00:00 12.4 8 Norte 18 Norte 0.2 -- -- 99
2020-01-10 16:00:00 12.7 5 Nordeste 17 Nordeste 0 -- -- 98
2020-01-10 15:00:00 13.5 8 Nordeste 21 Nordeste 0 -- -- 98
2020-01-10 14:00:00 13.3 9 Este 24 Nordeste 0 -- -- 96
2020-01-10 13:00:00 12.7 9 Nordeste 24 Norte 0.2 -- -- 100
2020-01-10 12:00:00 12.9 8 Nordeste 22 Norte 0 -- -- 100
2020-01-10 11:00:00 12.7 11 Nordeste 25 Nordeste 1.4 -- -- 100
2020-01-10 10:00:00 12.7 12 Nordeste 26 Norte 2.4 -- -- 100
2020-01-10 09:00:00 12.5 6 Nordeste 16 Sudeste 0.8 -- -- 100
2020-01-10 08:00:00 11.9 3 Nordeste 21 Este 0.6 -- -- 100
2020-01-10 07:00:00 11.9 8 Norte 21 Norte 1 -- -- 100
2020-01-10 06:00:00 11.6 4 Sudoeste 16 Norte 0 -- -- 100
2020-01-10 05:00:00 11.7 3 Norte 16 Norte 0.2 -- -- 100
2020-01-10 04:00:00 11.4 7 Norte 18 Norte 0 -- -- 100
2020-01-10 03:00:00 11.6 9 Norte 23 Norte 0 -- -- 100
2020-01-10 02:00:00 11.7 12 Norte 18 Norte 0.6 -- -- 99
2020-01-10 01:00:00 11.1 2 Oeste 9 Este 0 -- -- 95
2020-01-10 00:00:00 11.4 4 Noroeste 17 Norte 0 -- -- 92
2020-01-09 23:00:00 11.3 7 Norte 24 Nordeste 0 -- -- 92
2020-01-09 22:00:00 11.3 8 Norte 18 Norte 0 -- -- 95
2020-01-09 21:00:00 11.2 7 Norte 28 Norte 0 -- -- 93
2020-01-09 20:00:00 11.4 9 Norte 25 Norte 0.4 -- -- 97
2020-01-09 19:00:00 11.8 10 Norte 25 Norte 0 -- -- 95
2020-01-09 18:00:00 12.1 10 Norte 21 Nordeste 0 -- -- 95
2020-01-09 17:00:00 12.8 8 Norte 21 Norte 0 -- -- 89
2020-01-09 16:00:00 13.4 8 Norte 24 Norte 0 -- -- 88
2020-01-09 15:00:00 13.8 12 Norte 23 Norte 0 -- -- 83
2020-01-09 14:00:00 14.4 11 Norte 26 Norte 0 -- -- 80
2020-01-09 13:00:00 13.6 8 Nordeste 23 Nordeste 0 -- -- 82
2020-01-09 12:00:00 13.4 10 Norte 22 Norte 0 -- -- 84
2020-01-09 11:00:00 12.5 6 Norte 19 Norte 0.2 -- -- 91
2020-01-09 10:00:00 12.3 9 Norte 15 Norte 0 -- -- 93
2020-01-09 09:00:00 12.1 5 Norte 21 Norte 0 -- -- 92
2020-01-09 08:00:00 10.9 5 Norte 13 Norte 0 -- -- 93
2020-01-09 07:00:00 11 6 Norte 14 Norte 0 -- -- 93
2020-01-09 06:00:00 10.7 4 Norte 10 Norte 0 -- -- 99
2020-01-09 05:00:00 10.7 3 Norte 12 Norte 0 -- -- 98
2020-01-09 04:00:00 10.3 4 Norte 9 Norte 0 -- -- 99
2020-01-09 03:00:00 9.5 2 Oeste 10 Nordeste 0 -- -- 98
2020-01-09 02:00:00 10.7 3 Norte 12 Norte 0 -- -- 98
2020-01-09 01:00:00 11.1 4 Norte 15 Nordeste 0 -- -- 96
2020-01-09 00:00:00 11.1 4 Norte 19 Nordeste 0 -- -- 96
2020-01-08 23:00:00 11.2 8 Norte 19 Norte 0 -- -- 96
2020-01-08 22:00:00 10.4 5 Noroeste 14 Noroeste 0 -- -- 95
2020-01-08 21:00:00 10.9 7 Norte 16 Norte 0 -- -- 93
2020-01-08 20:00:00 11.3 5 Norte 17 Norte 0 -- -- 95
2020-01-08 19:00:00 11.4 9 Norte 22 Norte 0 -- -- 95
2020-01-08 18:00:00 11.8 11 Nordeste 23 Nordeste 0 -- -- 93
2020-01-08 17:00:00 12.6 6 Nordeste 18 Norte 0 -- -- 88
2020-01-08 16:00:00 14.6 10 Nordeste 20 Norte 0 -- -- 78
2020-01-08 15:00:00 13.8 12 Nordeste 20 Nordeste 0 -- -- 79
2020-01-08 14:00:00 13.1 11 Norte 19 Norte 0 -- -- 84
2020-01-08 13:00:00 14.5 7 Norte 21 Norte 0.2 -- -- 80
2020-01-08 12:00:00 13.6 9 Nordeste 23 Este 0 -- -- 87
2020-01-08 11:00:00 13 11 Nordeste 23 Nordeste 0 -- -- 89
2020-01-08 10:00:00 11.4 10 Norte 19 Este 0.6 -- -- 99
2020-01-08 09:00:00 10.9 4 Nordeste 13 Nordeste 0 -- -- 99
2020-01-08 08:00:00 10.5 5 Nordeste 12 Nordeste 0 -- -- 100
2020-01-08 07:00:00 10.5 2 Nordeste 13 Norte 0 -- -- 99
2020-01-08 06:00:00 10.4 4 Nordeste 15 Nordeste 0 -- -- 98
2020-01-08 05:00:00 10.7 8 Nordeste 17 Nordeste 0 -- -- 98
2020-01-08 04:00:00 10.7 3 Nordeste 17 Norte 0 -- -- 98
2020-01-08 03:00:00 11 5 Nordeste 12 Nordeste 0 -- -- 99
2020-01-08 02:00:00 11.1 7 Nordeste 14 Norte 0 -- -- 98
2020-01-08 01:00:00 11 4 Norte 9 Nordeste 0 -- -- 98
2020-01-08 00:00:00 10.6 4 Norte 14 Nordeste 0 -- -- 97
2020-01-07 23:00:00 11.4 6 Norte 18 Nordeste 0 -- -- 97
2020-01-07 22:00:00 11.6 7 Nordeste 16 Nordeste 0 -- -- 98
2020-01-07 21:00:00 11.8 6 Nordeste 20 Nordeste 0 -- -- 98
2020-01-07 20:00:00 11.9 7 Nordeste 16 Nordeste 0 -- -- 98
2020-01-07 19:00:00 12 6 Nordeste 16 Nordeste 0 -- -- 96
2020-01-07 18:00:00 12.9 5 Nordeste 14 Este 0 -- -- 81
2020-01-07 17:00:00 15.3 6 Nordeste 18 Nordeste 0 -- -- 65
2020-01-07 16:00:00 15.6 11 Nordeste 19 Este 0 -- -- 64
2020-01-07 15:00:00 16 11 Este 22 Este 0 -- -- 67
2020-01-07 14:00:00 15.4 10 Este 22 Nordeste 0 -- -- 74
2020-01-07 13:00:00 14.4 11 Nordeste 23 Este 0 -- -- 82
2020-01-07 12:00:00 14.4 11 Este 22 Nordeste 0 -- -- 85
2020-01-07 11:00:00 12.5 8 Este 21 Este 0 -- -- 89
2020-01-07 10:00:00 11.7 13 Este 24 Este 0 -- -- 93
2020-01-07 09:00:00 10.8 8 Este 23 Nordeste 0 -- -- 98
2020-01-07 08:00:00 10.3 6 Este 16 Este 0 -- -- 100
2020-01-07 07:00:00 10.4 8 Este 18 Este 0 -- -- 100
2020-01-07 06:00:00 10.7 4 Este 11 Este 0 -- -- 100
2020-01-07 05:00:00 11 9 Nordeste 19 Nordeste 0.2 -- -- 99
2020-01-07 04:00:00 10.5 5 Nordeste 16 Norte 0 -- -- 99
2020-01-07 03:00:00 10.9 11 Norte 24 Norte 0 -- -- 100
2020-01-07 02:00:00 11.2 9 Norte 28 Norte 0.2 -- -- 100
2020-01-07 01:00:00 11.6 12 Norte 29 Nordeste 0.6 -- -- 96
2020-01-07 00:00:00 11.4 5 Norte 27 Norte 0 -- -- 96
2020-01-06 23:00:00 11.6 10 Norte 28 Nordeste 0 -- -- 95
2020-01-06 22:00:00 11.6 14 Norte 32 Nordeste 0 -- -- 91
2020-01-06 21:00:00 11.5 17 Norte 33 Norte 0 -- -- 98
2020-01-06 20:00:00 12 15 Norte 32 Noroeste 0 -- -- 98
2020-01-06 19:00:00 11.6 12 Norte 28 Norte 0 -- -- 96
2020-01-06 18:00:00 11.9 8 Norte 22 Noroeste 0 -- -- 93
2020-01-06 17:00:00 12.6 9 Norte 25 Noroeste 0 -- -- 88
2020-01-06 16:00:00 12.9 12 Norte 26 Norte 0 -- -- 89
2020-01-06 15:00:00 13.8 11 Norte 27 Norte 0 -- -- 84
2020-01-06 14:00:00 14.2 13 Norte 24 Norte 0 -- -- 80
2020-01-06 13:00:00 14.3 12 Norte 22 Norte 0 -- -- 80
2020-01-06 12:00:00 14.2 13 Norte 22 Norte 0 -- -- 73
2020-01-06 11:00:00 14.8 10 Norte 25 Norte 0 -- -- 75
2020-01-06 10:00:00 12.7 7 Norte 18 Norte 0 -- -- 92
2020-01-06 09:00:00 12.3 8 Norte 24 Norte 0 -- -- 86